sensor_id;sensor_type;location;lat;lon;timestamp;temperature;humidity
59618;DHT22;45437;51.458;-2.568;2022-10-22T00:00:21;14.60;94.10
59618;DHT22;45437;51.458;-2.568;2022-10-22T00:01:22;14.60;94.10
59618;DHT22;45437;51.458;-2.568;2022-10-22T00:02:24;14.60;94.10
59618;DHT22;45437;51.458;-2.568;2022-10-22T00:03:25;14.60;94.20
59618;DHT22;45437;51.458;-2.568;2022-10-22T00:04:26;14.60;94.20
59618;DHT22;45437;51.458;-2.568;2022-10-22T00:05:26;14.60;94.30
59618;DHT22;45437;51.458;-2.568;2022-10-22T00:06:27;14.60;94.30
59618;DHT22;45437;51.458;-2.568;2022-10-22T00:07:27;14.60;94.20
59618;DHT22;45437;51.458;-2.568;2022-10-22T00:08:28;14.60;94.30
59618;DHT22;45437;51.458;-2.568;2022-10-22T00:09:29;14.60;94.10
59618;DHT22;45437;51.458;-2.568;2022-10-22T00:10:30;14.60;94.10
59618;DHT22;45437;51.458;-2.568;2022-10-22T00:11:30;14.60;94.10
59618;DHT22;45437;51.458;-2.568;2022-10-22T00:12:31;14.50;94.10
59618;DHT22;45437;51.458;-2.568;2022-10-22T00:13:31;14.60;94.20
59618;DHT22;45437;51.458;-2.568;2022-10-22T00:14:32;14.60;94.10
59618;DHT22;45437;51.458;-2.568;2022-10-22T00:15:33;14.60;94.10
59618;DHT22;45437;51.458;-2.568;2022-10-22T00:16:33;14.60;94.10
59618;DHT22;45437;51.458;-2.568;2022-10-22T00:17:34;14.60;94.00
59618;DHT22;45437;51.458;-2.568;2022-10-22T00:18:35;14.50;94.00
59618;DHT22;45437;51.458;-2.568;2022-10-22T00:19:36;14.50;94.00
59618;DHT22;45437;51.458;-2.568;2022-10-22T00:20:37;14.60;94.10
59618;DHT22;45437;51.458;-2.568;2022-10-22T00:21:37;14.50;93.90
59618;DHT22;45437;51.458;-2.568;2022-10-22T00:22:38;14.50;93.90
59618;DHT22;45437;51.458;-2.568;2022-10-22T00:23:40;14.50;93.90
59618;DHT22;45437;51.458;-2.568;2022-10-22T00:24:41;14.50;93.90
59618;DHT22;45437;51.458;-2.568;2022-10-22T00:25:42;14.50;93.90
59618;DHT22;45437;51.458;-2.568;2022-10-22T00:26:42;14.60;94.00
59618;DHT22;45437;51.458;-2.568;2022-10-22T00:27:43;14.50;94.10
59618;DHT22;45437;51.458;-2.568;2022-10-22T00:28:44;14.60;94.10
59618;DHT22;45437;51.458;-2.568;2022-10-22T00:29:44;14.50;94.00
59618;DHT22;45437;51.458;-2.568;2022-10-22T00:30:45;14.50;93.90
59618;DHT22;45437;51.458;-2.568;2022-10-22T00:31:45;14.50;93.90
59618;DHT22;45437;51.458;-2.568;2022-10-22T00:32:49;14.50;94.00
59618;DHT22;45437;51.458;-2.568;2022-10-22T00:33:49;14.50;93.90
59618;DHT22;45437;51.458;-2.568;2022-10-22T00:34:50;14.50;93.80
59618;DHT22;45437;51.458;-2.568;2022-10-22T00:35:51;14.50;93.80
59618;DHT22;45437;51.458;-2.568;2022-10-22T00:36:51;14.50;93.80
59618;DHT22;45437;51.458;-2.568;2022-10-22T00:37:52;14.50;93.80
59618;DHT22;45437;51.458;-2.568;2022-10-22T00:38:52;14.50;93.80
59618;DHT22;45437;51.458;-2.568;2022-10-22T00:39:53;14.50;93.80
59618;DHT22;45437;51.458;-2.568;2022-10-22T00:40:54;14.50;93.90
59618;DHT22;45437;51.458;-2.568;2022-10-22T00:41:56;14.50;94.10
59618;DHT22;45437;51.458;-2.568;2022-10-22T00:42:57;14.50;94.00
59618;DHT22;45437;51.458;-2.568;2022-10-22T00:43:59;14.50;94.00
59618;DHT22;45437;51.458;-2.568;2022-10-22T00:46:09;14.50;93.80
59618;DHT22;45437;51.458;-2.568;2022-10-22T00:47:09;14.50;94.00
59618;DHT22;45437;51.458;-2.568;2022-10-22T00:48:11;14.50;93.90
59618;DHT22;45437;51.458;-2.568;2022-10-22T00:49:12;14.50;93.80
59618;DHT22;45437;51.458;-2.568;2022-10-22T00:50:15;14.40;93.80
59618;DHT22;45437;51.458;-2.568;2022-10-22T00:51:16;14.50;93.90
59618;DHT22;45437;51.458;-2.568;2022-10-22T00:52:19;14.50;93.80
59618;DHT22;45437;51.458;-2.568;2022-10-22T00:53:20;14.40;93.80
59618;DHT22;45437;51.458;-2.568;2022-10-22T00:54:22;14.40;93.80
59618;DHT22;45437;51.458;-2.568;2022-10-22T00:55:23;14.40;93.90
59618;DHT22;45437;51.458;-2.568;2022-10-22T00:56:24;14.50;94.00
59618;DHT22;45437;51.458;-2.568;2022-10-22T00:57:25;14.40;93.80
59618;DHT22;45437;51.458;-2.568;2022-10-22T00:58:28;14.40;93.90
59618;DHT22;45437;51.458;-2.568;2022-10-22T00:59:29;14.40;93.90
59618;DHT22;45437;51.458;-2.568;2022-10-22T01:00:30;14.40;93.90
59618;DHT22;45437;51.458;-2.568;2022-10-22T01:01:31;14.50;93.90
59618;DHT22;45437;51.458;-2.568;2022-10-22T01:02:32;14.40;93.90
59618;DHT22;45437;51.458;-2.568;2022-10-22T01:03:32;14.40;93.90
59618;DHT22;45437;51.458;-2.568;2022-10-22T01:04:33;14.50;94.00
59618;DHT22;45437;51.458;-2.568;2022-10-22T01:05:38;14.50;93.80
59618;DHT22;45437;51.458;-2.568;2022-10-22T01:06:40;14.40;93.80
59618;DHT22;45437;51.458;-2.568;2022-10-22T01:07:42;14.40;93.70
59618;DHT22;45437;51.458;-2.568;2022-10-22T01:09:04;14.40;93.80
59618;DHT22;45437;51.458;-2.568;2022-10-22T01:10:09;14.40;93.80
59618;DHT22;45437;51.458;-2.568;2022-10-22T01:11:16;14.40;93.80
59618;DHT22;45437;51.458;-2.568;2022-10-22T01:13:38;14.40;93.80
59618;DHT22;45437;51.458;-2.568;2022-10-22T01:14:47;14.40;93.80
59618;DHT22;45437;51.458;-2.568;2022-10-22T01:17:05;14.40;93.80
59618;DHT22;45437;51.458;-2.568;2022-10-22T01:18:08;14.40;93.90
59618;DHT22;45437;51.458;-2.568;2022-10-22T01:20:25;14.40;93.80
59618;DHT22;45437;51.458;-2.568;2022-10-22T01:21:32;14.40;93.80
59618;DHT22;45437;51.458;-2.568;2022-10-22T01:22:35;14.40;93.90
59618;DHT22;45437;51.458;-2.568;2022-10-22T01:24:57;14.40;93.80
59618;DHT22;45437;51.458;-2.568;2022-10-22T01:27:23;14.40;94.00
59618;DHT22;45437;51.458;-2.568;2022-10-22T01:29:47;14.40;94.00
59618;DHT22;45437;51.458;-2.568;2022-10-22T01:30:49;14.40;94.00
59618;DHT22;45437;51.458;-2.568;2022-10-22T01:31:56;14.40;93.80
59618;DHT22;45437;51.458;-2.568;2022-10-22T01:32:58;14.40;93.80
59618;DHT22;45437;51.458;-2.568;2022-10-22T01:34:00;14.40;93.80
59618;DHT22;45437;51.458;-2.568;2022-10-22T01:35:03;14.40;93.80
59618;DHT22;45437;51.458;-2.568;2022-10-22T01:36:04;14.40;93.70
59618;DHT22;45437;51.458;-2.568;2022-10-22T01:37:05;14.40;93.80
59618;DHT22;45437;51.458;-2.568;2022-10-22T01:38:08;14.40;93.80
59618;DHT22;45437;51.458;-2.568;2022-10-22T01:39:09;14.40;93.80
59618;DHT22;45437;51.458;-2.568;2022-10-22T01:40:11;14.40;93.60
59618;DHT22;45437;51.458;-2.568;2022-10-22T01:41:14;14.40;93.60
59618;DHT22;45437;51.458;-2.568;2022-10-22T01:42:15;14.40;93.60
59618;DHT22;45437;51.458;-2.568;2022-10-22T01:43:15;14.40;93.70
59618;DHT22;45437;51.458;-2.568;2022-10-22T01:44:29;14.30;93.60
59618;DHT22;45437;51.458;-2.568;2022-10-22T01:45:32;14.30;93.70
59618;DHT22;45437;51.458;-2.568;2022-10-22T01:46:33;14.30;93.50
59618;DHT22;45437;51.458;-2.568;2022-10-22T01:47:43;14.40;93.50
59618;DHT22;45437;51.458;-2.568;2022-10-22T01:50:27;14.30;93.80
59618;DHT22;45437;51.458;-2.568;2022-10-22T01:52:40;14.30;93.60
59618;DHT22;45437;51.458;-2.568;2022-10-22T01:55:23;14.30;93.60
59618;DHT22;45437;51.458;-2.568;2022-10-22T01:56:30;14.30;93.60
59618;DHT22;45437;51.458;-2.568;2022-10-22T01:57:39;14.30;93.60
59618;DHT22;45437;51.458;-2.568;2022-10-22T02:00:11;14.30;93.60
59618;DHT22;45437;51.458;-2.568;2022-10-22T02:02:19;14.30;93.40
59618;DHT22;45437;51.458;-2.568;2022-10-22T02:03:25;14.30;93.50
59618;DHT22;45437;51.458;-2.568;2022-10-22T02:05:44;14.30;93.60
59618;DHT22;45437;51.458;-2.568;2022-10-22T02:06:47;14.30;93.50
59618;DHT22;45437;51.458;-2.568;2022-10-22T02:07:54;14.30;93.60
59618;DHT22;45437;51.458;-2.568;2022-10-22T02:08:56;14.30;93.50
59618;DHT22;45437;51.458;-2.568;2022-10-22T02:09:58;14.30;93.40
59618;DHT22;45437;51.458;-2.568;2022-10-22T02:10:59;14.30;93.50
59618;DHT22;45437;51.458;-2.568;2022-10-22T02:12:01;14.30;93.60
59618;DHT22;45437;51.458;-2.568;2022-10-22T02:13:02;14.30;93.60
59618;DHT22;45437;51.458;-2.568;2022-10-22T02:14:04;14.30;93.60
59618;DHT22;45437;51.458;-2.568;2022-10-22T02:15:06;14.30;93.60
59618;DHT22;45437;51.458;-2.568;2022-10-22T02:16:08;14.30;93.60
59618;DHT22;45437;51.458;-2.568;2022-10-22T02:17:11;14.30;93.50
59618;DHT22;45437;51.458;-2.568;2022-10-22T02:18:12;14.30;93.70
59618;DHT22;45437;51.458;-2.568;2022-10-22T02:19:25;14.30;93.60
59618;DHT22;45437;51.458;-2.568;2022-10-22T02:20:30;14.30;93.70
59618;DHT22;45437;51.458;-2.568;2022-10-22T02:21:31;14.30;93.80
59618;DHT22;45437;51.458;-2.568;2022-10-22T02:22:32;14.30;93.60
59618;DHT22;45437;51.458;-2.568;2022-10-22T02:23:33;14.30;93.40
59618;DHT22;45437;51.458;-2.568;2022-10-22T02:24:33;14.30;93.60
59618;DHT22;45437;51.458;-2.568;2022-10-22T02:25:35;14.30;93.70
59618;DHT22;45437;51.458;-2.568;2022-10-22T02:27:20;14.30;93.70
59618;DHT22;45437;51.458;-2.568;2022-10-22T02:28:12;14.30;93.70
59618;DHT22;45437;51.458;-2.568;2022-10-22T02:29:19;14.30;93.80
59618;DHT22;45437;51.458;-2.568;2022-10-22T02:30:21;14.20;93.40
59618;DHT22;45437;51.458;-2.568;2022-10-22T02:31:22;14.20;93.50
59618;DHT22;45437;51.458;-2.568;2022-10-22T02:32:25;14.30;93.70
59618;DHT22;45437;51.458;-2.568;2022-10-22T02:33:27;14.20;93.70
59618;DHT22;45437;51.458;-2.568;2022-10-22T02:34:29;14.30;93.70
59618;DHT22;45437;51.458;-2.568;2022-10-22T02:35:31;14.30;93.70
59618;DHT22;45437;51.458;-2.568;2022-10-22T02:36:32;14.30;93.70
59618;DHT22;45437;51.458;-2.568;2022-10-22T02:37:33;14.20;93.60
59618;DHT22;45437;51.458;-2.568;2022-10-22T02:38:34;14.30;93.50
59618;DHT22;45437;51.458;-2.568;2022-10-22T02:39:35;14.20;93.40
59618;DHT22;45437;51.458;-2.568;2022-10-22T02:40:36;14.30;93.50
59618;DHT22;45437;51.458;-2.568;2022-10-22T02:41:37;14.20;93.40
59618;DHT22;45437;51.458;-2.568;2022-10-22T02:42:38;14.20;93.60
59618;DHT22;45437;51.458;-2.568;2022-10-22T02:43:39;14.20;93.60
59618;DHT22;45437;51.458;-2.568;2022-10-22T02:44:41;14.20;93.10
59618;DHT22;45437;51.458;-2.568;2022-10-22T02:45:42;14.20;93.40
59618;DHT22;45437;51.458;-2.568;2022-10-22T02:46:42;14.20;93.50
59618;DHT22;45437;51.458;-2.568;2022-10-22T02:47:43;14.20;93.60
59618;DHT22;45437;51.458;-2.568;2022-10-22T02:48:44;14.20;93.50
59618;DHT22;45437;51.458;-2.568;2022-10-22T02:49:44;14.20;93.50
59618;DHT22;45437;51.458;-2.568;2022-10-22T02:50:45;14.20;93.50
59618;DHT22;45437;51.458;-2.568;2022-10-22T02:51:46;14.20;93.50
59618;DHT22;45437;51.458;-2.568;2022-10-22T02:52:46;14.10;93.60
59618;DHT22;45437;51.458;-2.568;2022-10-22T02:53:47;14.20;93.90
59618;DHT22;45437;51.458;-2.568;2022-10-22T02:54:47;14.20;93.50
59618;DHT22;45437;51.458;-2.568;2022-10-22T02:55:48;14.20;93.50
59618;DHT22;45437;51.458;-2.568;2022-10-22T02:56:49;14.20;93.50
59618;DHT22;45437;51.458;-2.568;2022-10-22T02:57:49;14.20;93.50
59618;DHT22;45437;51.458;-2.568;2022-10-22T02:58:50;14.10;93.60
59618;DHT22;45437;51.458;-2.568;2022-10-22T02:59:50;14.10;93.50
59618;DHT22;45437;51.458;-2.568;2022-10-22T03:00:51;14.10;93.60
59618;DHT22;45437;51.458;-2.568;2022-10-22T03:01:52;14.10;93.50
59618;DHT22;45437;51.458;-2.568;2022-10-22T03:02:52;14.20;93.90
59618;DHT22;45437;51.458;-2.568;2022-10-22T03:03:53;14.10;93.50
59618;DHT22;45437;51.458;-2.568;2022-10-22T03:04:54;14.20;93.60
59618;DHT22;45437;51.458;-2.568;2022-10-22T03:05:55;14.10;93.50
59618;DHT22;45437;51.458;-2.568;2022-10-22T03:06:55;14.10;93.40
59618;DHT22;45437;51.458;-2.568;2022-10-22T03:07:56;14.10;93.50
59618;DHT22;45437;51.458;-2.568;2022-10-22T03:08:56;14.10;93.60
59618;DHT22;45437;51.458;-2.568;2022-10-22T03:09:57;14.10;93.50
59618;DHT22;45437;51.458;-2.568;2022-10-22T03:10:58;14.10;93.50
59618;DHT22;45437;51.458;-2.568;2022-10-22T03:11:58;14.10;93.60
59618;DHT22;45437;51.458;-2.568;2022-10-22T03:12:59;14.10;93.50
59618;DHT22;45437;51.458;-2.568;2022-10-22T03:14:00;14.10;93.60
59618;DHT22;45437;51.458;-2.568;2022-10-22T03:15:00;14.00;93.40
59618;DHT22;45437;51.458;-2.568;2022-10-22T03:16:01;14.10;93.50
59618;DHT22;45437;51.458;-2.568;2022-10-22T03:17:01;14.10;93.40
59618;DHT22;45437;51.458;-2.568;2022-10-22T03:18:03;14.10;93.50
59618;DHT22;45437;51.458;-2.568;2022-10-22T03:19:03;14.00;93.40
59618;DHT22;45437;51.458;-2.568;2022-10-22T03:20:04;14.00;93.50
59618;DHT22;45437;51.458;-2.568;2022-10-22T03:22:26;14.00;93.40
59618;DHT22;45437;51.458;-2.568;2022-10-22T03:23:28;14.00;93.50
59618;DHT22;45437;51.458;-2.568;2022-10-22T03:24:30;14.00;93.60
59618;DHT22;45437;51.458;-2.568;2022-10-22T03:25:33;14.00;93.50
59618;DHT22;45437;51.458;-2.568;2022-10-22T03:26:35;14.00;93.50
59618;DHT22;45437;51.458;-2.568;2022-10-22T03:27:36;14.00;93.50
59618;DHT22;45437;51.458;-2.568;2022-10-22T03:28:37;14.00;93.50
59618;DHT22;45437;51.458;-2.568;2022-10-22T03:29:38;14.00;93.50
59618;DHT22;45437;51.458;-2.568;2022-10-22T03:30:39;14.00;93.50
59618;DHT22;45437;51.458;-2.568;2022-10-22T03:31:40;14.00;93.50
59618;DHT22;45437;51.458;-2.568;2022-10-22T03:32:41;14.00;93.50
59618;DHT22;45437;51.458;-2.568;2022-10-22T03:33:42;14.00;93.50
59618;DHT22;45437;51.458;-2.568;2022-10-22T03:34:42;13.90;93.40
59618;DHT22;45437;51.458;-2.568;2022-10-22T03:35:44;14.00;93.50
59618;DHT22;45437;51.458;-2.568;2022-10-22T03:36:46;14.00;93.90
59618;DHT22;45437;51.458;-2.568;2022-10-22T03:37:47;13.90;93.50
59618;DHT22;45437;51.458;-2.568;2022-10-22T03:38:48;13.90;93.50
59618;DHT22;45437;51.458;-2.568;2022-10-22T03:39:49;13.90;93.50
59618;DHT22;45437;51.458;-2.568;2022-10-22T03:40:50;13.90;93.30
59618;DHT22;45437;51.458;-2.568;2022-10-22T03:41:51;13.90;93.40
59618;DHT22;45437;51.458;-2.568;2022-10-22T03:42:52;13.90;93.50
59618;DHT22;45437;51.458;-2.568;2022-10-22T03:43:53;13.90;93.50
59618;DHT22;45437;51.458;-2.568;2022-10-22T03:44:54;13.90;93.50
59618;DHT22;45437;51.458;-2.568;2022-10-22T03:45:55;13.90;93.50
59618;DHT22;45437;51.458;-2.568;2022-10-22T03:46:55;13.90;93.50
59618;DHT22;45437;51.458;-2.568;2022-10-22T03:47:56;13.90;93.40
59618;DHT22;45437;51.458;-2.568;2022-10-22T03:48:57;13.90;93.50
59618;DHT22;45437;51.458;-2.568;2022-10-22T03:49:57;13.90;93.40
59618;DHT22;45437;51.458;-2.568;2022-10-22T03:50:58;13.90;93.00
59618;DHT22;45437;51.458;-2.568;2022-10-22T03:52:11;13.80;93.30
59618;DHT22;45437;51.458;-2.568;2022-10-22T03:53:12;13.80;93.40
59618;DHT22;45437;51.458;-2.568;2022-10-22T03:54:14;13.80;93.40
59618;DHT22;45437;51.458;-2.568;2022-10-22T03:55:15;13.80;93.50
59618;DHT22;45437;51.458;-2.568;2022-10-22T03:56:15;13.80;93.40
59618;DHT22;45437;51.458;-2.568;2022-10-22T03:57:16;13.80;93.30
59618;DHT22;45437;51.458;-2.568;2022-10-22T03:58:17;13.80;93.40
59618;DHT22;45437;51.458;-2.568;2022-10-22T03:59:17;13.80;93.40
59618;DHT22;45437;51.458;-2.568;2022-10-22T04:00:18;13.80;93.50
59618;DHT22;45437;51.458;-2.568;2022-10-22T04:01:19;13.80;93.40
59618;DHT22;45437;51.458;-2.568;2022-10-22T04:02:19;13.70;93.40
59618;DHT22;45437;51.458;-2.568;2022-10-22T04:03:21;13.80;93.40
59618;DHT22;45437;51.458;-2.568;2022-10-22T04:04:21;13.70;93.40
59618;DHT22;45437;51.458;-2.568;2022-10-22T04:05:22;13.80;93.30
59618;DHT22;45437;51.458;-2.568;2022-10-22T04:06:23;13.70;93.20
59618;DHT22;45437;51.458;-2.568;2022-10-22T04:07:24;13.70;93.20
59618;DHT22;45437;51.458;-2.568;2022-10-22T04:08:24;13.70;93.30
59618;DHT22;45437;51.458;-2.568;2022-10-22T04:09:25;13.70;93.30
59618;DHT22;45437;51.458;-2.568;2022-10-22T04:10:25;13.70;93.40
59618;DHT22;45437;51.458;-2.568;2022-10-22T04:11:26;13.70;93.40
59618;DHT22;45437;51.458;-2.568;2022-10-22T04:12:27;13.70;93.30
59618;DHT22;45437;51.458;-2.568;2022-10-22T04:13:27;13.70;93.50
59618;DHT22;45437;51.458;-2.568;2022-10-22T04:14:28;13.70;93.40
59618;DHT22;45437;51.458;-2.568;2022-10-22T04:15:28;13.70;93.40
59618;DHT22;45437;51.458;-2.568;2022-10-22T04:16:29;13.70;93.30
59618;DHT22;45437;51.458;-2.568;2022-10-22T04:17:35;13.70;93.40
59618;DHT22;45437;51.458;-2.568;2022-10-22T04:18:36;13.70;93.40
59618;DHT22;45437;51.458;-2.568;2022-10-22T04:19:37;13.70;93.40
59618;DHT22;45437;51.458;-2.568;2022-10-22T04:20:37;13.70;93.40
59618;DHT22;45437;51.458;-2.568;2022-10-22T04:21:38;13.70;93.40
59618;DHT22;45437;51.458;-2.568;2022-10-22T04:22:39;13.70;93.30
59618;DHT22;45437;51.458;-2.568;2022-10-22T04:23:46;13.70;93.40
59618;DHT22;45437;51.458;-2.568;2022-10-22T04:24:47;13.70;93.30
59618;DHT22;45437;51.458;-2.568;2022-10-22T04:25:48;13.70;93.30
59618;DHT22;45437;51.458;-2.568;2022-10-22T04:26:48;13.60;93.30
59618;DHT22;45437;51.458;-2.568;2022-10-22T04:27:49;13.70;93.30
59618;DHT22;45437;51.458;-2.568;2022-10-22T04:28:50;13.60;93.30
59618;DHT22;45437;51.458;-2.568;2022-10-22T04:29:51;13.60;93.30
59618;DHT22;45437;51.458;-2.568;2022-10-22T04:30:52;13.60;93.20
59618;DHT22;45437;51.458;-2.568;2022-10-22T04:31:52;13.60;93.20
59618;DHT22;45437;51.458;-2.568;2022-10-22T04:32:53;13.60;93.20
59618;DHT22;45437;51.458;-2.568;2022-10-22T04:33:54;13.60;93.30
59618;DHT22;45437;51.458;-2.568;2022-10-22T04:34:55;13.60;93.00
59618;DHT22;45437;51.458;-2.568;2022-10-22T04:35:56;13.60;93.10
59618;DHT22;45437;51.458;-2.568;2022-10-22T04:36:56;13.60;93.00
59618;DHT22;45437;51.458;-2.568;2022-10-22T04:37:57;13.60;93.10
59618;DHT22;45437;51.458;-2.568;2022-10-22T04:38:59;13.60;92.70
59618;DHT22;45437;51.458;-2.568;2022-10-22T04:39:59;13.60;92.90
59618;DHT22;45437;51.458;-2.568;2022-10-22T04:41:19;13.50;92.90
59618;DHT22;45437;51.458;-2.568;2022-10-22T04:42:20;13.50;93.00
59618;DHT22;45437;51.458;-2.568;2022-10-22T04:43:20;13.50;93.10
59618;DHT22;45437;51.458;-2.568;2022-10-22T04:44:21;13.50;93.10
59618;DHT22;45437;51.458;-2.568;2022-10-22T04:45:22;13.50;93.20
59618;DHT22;45437;51.458;-2.568;2022-10-22T04:46:23;13.50;93.20
59618;DHT22;45437;51.458;-2.568;2022-10-22T04:47:23;13.60;93.20
59618;DHT22;45437;51.458;-2.568;2022-10-22T04:48:24;13.50;93.20
59618;DHT22;45437;51.458;-2.568;2022-10-22T04:49:25;13.60;93.20
59618;DHT22;45437;51.458;-2.568;2022-10-22T04:50:25;13.50;93.20
59618;DHT22;45437;51.458;-2.568;2022-10-22T04:51:26;13.50;93.20
59618;DHT22;45437;51.458;-2.568;2022-10-22T04:52:27;13.50;93.20
59618;DHT22;45437;51.458;-2.568;2022-10-22T04:53:27;13.50;93.20
59618;DHT22;45437;51.458;-2.568;2022-10-22T04:54:28;13.50;93.20
59618;DHT22;45437;51.458;-2.568;2022-10-22T04:55:29;13.50;93.10
59618;DHT22;45437;51.458;-2.568;2022-10-22T04:56:30;13.50;93.20
59618;DHT22;45437;51.458;-2.568;2022-10-22T04:57:31;13.50;93.20
59618;DHT22;45437;51.458;-2.568;2022-10-22T04:58:32;13.50;93.20
59618;DHT22;45437;51.458;-2.568;2022-10-22T04:59:33;13.50;93.20
59618;DHT22;45437;51.458;-2.568;2022-10-22T05:00:33;13.50;93.20
59618;DHT22;45437;51.458;-2.568;2022-10-22T05:01:37;13.50;93.20
59618;DHT22;45437;51.458;-2.568;2022-10-22T05:02:38;13.50;93.20
59618;DHT22;45437;51.458;-2.568;2022-10-22T05:03:39;13.50;93.30
59618;DHT22;45437;51.458;-2.568;2022-10-22T05:04:42;13.50;93.30
59618;DHT22;45437;51.458;-2.568;2022-10-22T05:05:42;13.50;93.30
59618;DHT22;45437;51.458;-2.568;2022-10-22T05:06:43;13.50;93.60
59618;DHT22;45437;51.458;-2.568;2022-10-22T05:07:44;13.50;93.30
59618;DHT22;45437;51.458;-2.568;2022-10-22T05:08:45;13.50;93.30
59618;DHT22;45437;51.458;-2.568;2022-10-22T05:09:46;13.50;93.30
59618;DHT22;45437;51.458;-2.568;2022-10-22T05:10:47;13.50;93.40
59618;DHT22;45437;51.458;-2.568;2022-10-22T05:11:48;13.50;93.30
59618;DHT22;45437;51.458;-2.568;2022-10-22T05:12:49;13.50;93.20
59618;DHT22;45437;51.458;-2.568;2022-10-22T05:13:50;13.50;93.00
59618;DHT22;45437;51.458;-2.568;2022-10-22T05:14:51;13.50;93.10
59618;DHT22;45437;51.458;-2.568;2022-10-22T05:15:51;13.50;93.10
59618;DHT22;45437;51.458;-2.568;2022-10-22T05:16:52;13.50;93.20
59618;DHT22;45437;51.458;-2.568;2022-10-22T05:17:52;13.50;93.30
59618;DHT22;45437;51.458;-2.568;2022-10-22T05:18:53;13.50;93.20
59618;DHT22;45437;51.458;-2.568;2022-10-22T05:19:54;13.50;93.30
59618;DHT22;45437;51.458;-2.568;2022-10-22T05:20:55;13.50;93.20
59618;DHT22;45437;51.458;-2.568;2022-10-22T05:21:57;13.50;93.10
59618;DHT22;45437;51.458;-2.568;2022-10-22T05:22:57;13.50;93.20
59618;DHT22;45437;51.458;-2.568;2022-10-22T05:23:58;13.50;93.20
59618;DHT22;45437;51.458;-2.568;2022-10-22T05:24:59;13.50;93.10
59618;DHT22;45437;51.458;-2.568;2022-10-22T05:26:00;13.50;92.90
59618;DHT22;45437;51.458;-2.568;2022-10-22T05:27:01;13.50;93.00
59618;DHT22;45437;51.458;-2.568;2022-10-22T05:28:02;13.50;92.90
59618;DHT22;45437;51.458;-2.568;2022-10-22T05:29:02;13.50;93.00
59618;DHT22;45437;51.458;-2.568;2022-10-22T05:30:03;13.50;93.10
59618;DHT22;45437;51.458;-2.568;2022-10-22T05:31:04;13.50;93.00
59618;DHT22;45437;51.458;-2.568;2022-10-22T05:32:05;13.50;93.00
59618;DHT22;45437;51.458;-2.568;2022-10-22T05:33:06;13.50;92.90
59618;DHT22;45437;51.458;-2.568;2022-10-22T05:34:06;13.50;92.80
59618;DHT22;45437;51.458;-2.568;2022-10-22T05:35:07;13.50;92.90
59618;DHT22;45437;51.458;-2.568;2022-10-22T05:36:09;13.50;92.90
59618;DHT22;45437;51.458;-2.568;2022-10-22T05:37:11;13.40;93.00
59618;DHT22;45437;51.458;-2.568;2022-10-22T05:38:11;13.40;93.00
59618;DHT22;45437;51.458;-2.568;2022-10-22T05:39:12;13.40;92.90
59618;DHT22;45437;51.458;-2.568;2022-10-22T05:40:12;13.40;92.90
59618;DHT22;45437;51.458;-2.568;2022-10-22T05:41:15;13.40;92.90
59618;DHT22;45437;51.458;-2.568;2022-10-22T05:42:15;13.40;92.90
59618;DHT22;45437;51.458;-2.568;2022-10-22T05:43:16;13.40;92.80
59618;DHT22;45437;51.458;-2.568;2022-10-22T05:44:17;13.40;92.80
59618;DHT22;45437;51.458;-2.568;2022-10-22T05:45:17;13.40;92.80
59618;DHT22;45437;51.458;-2.568;2022-10-22T05:46:19;13.40;92.80
59618;DHT22;45437;51.458;-2.568;2022-10-22T05:47:20;13.40;92.90
59618;DHT22;45437;51.458;-2.568;2022-10-22T05:48:20;13.40;92.90
59618;DHT22;45437;51.458;-2.568;2022-10-22T05:49:21;13.40;92.80
59618;DHT22;45437;51.458;-2.568;2022-10-22T05:50:22;13.40;92.90
59618;DHT22;45437;51.458;-2.568;2022-10-22T05:51:22;13.40;92.80
59618;DHT22;45437;51.458;-2.568;2022-10-22T05:52:23;13.40;92.80
59618;DHT22;45437;51.458;-2.568;2022-10-22T05:53:24;13.40;92.80
59618;DHT22;45437;51.458;-2.568;2022-10-22T05:54:25;13.40;93.00
59618;DHT22;45437;51.458;-2.568;2022-10-22T05:55:25;13.40;93.00
59618;DHT22;45437;51.458;-2.568;2022-10-22T05:56:26;13.40;92.70
59618;DHT22;45437;51.458;-2.568;2022-10-22T05:57:27;13.40;92.60
59618;DHT22;45437;51.458;-2.568;2022-10-22T05:58:28;13.40;92.80
59618;DHT22;45437;51.458;-2.568;2022-10-22T05:59:32;13.40;92.80
59618;DHT22;45437;51.458;-2.568;2022-10-22T06:00:32;13.40;92.70
59618;DHT22;45437;51.458;-2.568;2022-10-22T06:01:34;13.30;92.70
59618;DHT22;45437;51.458;-2.568;2022-10-22T06:02:34;13.30;92.80
59618;DHT22;45437;51.458;-2.568;2022-10-22T06:03:35;13.40;92.90
59618;DHT22;45437;51.458;-2.568;2022-10-22T06:04:36;13.40;93.00
59618;DHT22;45437;51.458;-2.568;2022-10-22T06:05:36;13.30;93.00
59618;DHT22;45437;51.458;-2.568;2022-10-22T06:06:44;13.40;92.90
59618;DHT22;45437;51.458;-2.568;2022-10-22T06:07:45;13.30;92.80
59618;DHT22;45437;51.458;-2.568;2022-10-22T06:08:46;13.40;92.80
59618;DHT22;45437;51.458;-2.568;2022-10-22T06:09:47;13.30;92.80
59618;DHT22;45437;51.458;-2.568;2022-10-22T06:10:49;13.30;92.50
59618;DHT22;45437;51.458;-2.568;2022-10-22T06:11:50;13.30;92.70
59618;DHT22;45437;51.458;-2.568;2022-10-22T06:12:51;13.30;92.70
59618;DHT22;45437;51.458;-2.568;2022-10-22T06:13:51;13.30;92.70
59618;DHT22;45437;51.458;-2.568;2022-10-22T06:14:52;13.30;92.80
59618;DHT22;45437;51.458;-2.568;2022-10-22T06:15:53;13.30;92.80
59618;DHT22;45437;51.458;-2.568;2022-10-22T06:16:54;13.30;92.70
59618;DHT22;45437;51.458;-2.568;2022-10-22T06:17:54;13.30;92.60
59618;DHT22;45437;51.458;-2.568;2022-10-22T06:18:56;13.30;92.70
59618;DHT22;45437;51.458;-2.568;2022-10-22T06:19:57;13.30;92.70
59618;DHT22;45437;51.458;-2.568;2022-10-22T06:21:02;13.30;92.70
59618;DHT22;45437;51.458;-2.568;2022-10-22T06:22:03;13.30;92.60
59618;DHT22;45437;51.458;-2.568;2022-10-22T06:23:04;13.30;92.60
59618;DHT22;45437;51.458;-2.568;2022-10-22T06:24:05;13.30;92.60
59618;DHT22;45437;51.458;-2.568;2022-10-22T06:25:06;13.30;92.80
59618;DHT22;45437;51.458;-2.568;2022-10-22T06:26:07;13.30;92.80
59618;DHT22;45437;51.458;-2.568;2022-10-22T06:27:08;13.30;92.70
59618;DHT22;45437;51.458;-2.568;2022-10-22T06:28:09;13.30;92.80
59618;DHT22;45437;51.458;-2.568;2022-10-22T06:29:10;13.30;92.80
59618;DHT22;45437;51.458;-2.568;2022-10-22T06:30:10;13.30;92.90
59618;DHT22;45437;51.458;-2.568;2022-10-22T06:31:11;13.30;92.80
59618;DHT22;45437;51.458;-2.568;2022-10-22T06:32:12;13.30;92.70
59618;DHT22;45437;51.458;-2.568;2022-10-22T06:33:12;13.30;92.70
59618;DHT22;45437;51.458;-2.568;2022-10-22T06:34:13;13.20;92.60
59618;DHT22;45437;51.458;-2.568;2022-10-22T06:35:14;13.20;92.70
59618;DHT22;45437;51.458;-2.568;2022-10-22T06:36:17;13.20;92.80
59618;DHT22;45437;51.458;-2.568;2022-10-22T06:37:18;13.20;92.70
59618;DHT22;45437;51.458;-2.568;2022-10-22T06:38:19;13.20;92.70
59618;DHT22;45437;51.458;-2.568;2022-10-22T06:39:20;13.30;92.80
59618;DHT22;45437;51.458;-2.568;2022-10-22T06:40:20;13.20;92.70
59618;DHT22;45437;51.458;-2.568;2022-10-22T06:41:21;13.20;92.70